createdAt,value
2023-11-01T00:00:31.247Z,50.885616
2023-11-01T00:01:31.307Z,50.885586
2023-11-01T00:02:31.256Z,50.885578
2023-11-01T00:03:31.251Z,50.885540
2023-11-01T00:04:31.253Z,50.885666
2023-11-01T00:05:31.236Z,50.885670
2023-11-01T00:06:31.214Z,50.885643
2023-11-01T00:07:31.198Z,50.885616
2023-11-01T00:08:31.269Z,50.885651
2023-11-01T00:09:31.183Z,50.885555
2023-11-01T00:10:31.235Z,50.885517
2023-11-01T00:11:31.227Z,50.885551
2023-11-01T00:12:31.169Z,50.885544
2023-11-01T00:13:31.171Z,50.885601
2023-11-01T00:14:31.158Z,50.885670
2023-11-01T00:15:31.162Z,50.885666
2023-11-01T00:16:31.241Z,50.885662
2023-11-01T00:17:31.204Z,50.885620
2023-11-01T00:18:31.178Z,50.885662
2023-11-01T00:19:31.142Z,50.885639
2023-11-01T00:20:31.192Z,50.885612
2023-11-01T00:21:31.131Z,50.885677
2023-11-01T00:22:31.101Z,50.885620
2023-11-01T00:23:31.115Z,50.885578
2023-11-01T00:24:31.104Z,50.885574
2023-11-01T00:25:31.113Z,50.885624
2023-11-01T00:26:31.160Z,50.885620
2023-11-01T00:27:31.070Z,50.885651
2023-11-01T00:28:31.100Z,50.885593
2023-11-01T00:29:31.123Z,50.885654
2023-11-01T00:30:31.067Z,50.885616
2023-11-01T00:31:31.091Z,50.885620
2023-11-01T00:33:05.423Z,50.885620
2023-11-01T00:33:31.122Z,50.885635
2023-11-01T00:34:31.055Z,50.885647
2023-11-01T00:35:31.062Z,50.885670
2023-11-01T00:36:31.049Z,50.885639
2023-11-01T00:37:31.029Z,50.885551
2023-11-01T00:38:31.041Z,50.885624
2023-11-01T00:39:31.069Z,50.885696
2023-11-01T00:40:31.048Z,50.885651
2023-11-01T00:41:31.088Z,50.885555
2023-11-01T00:42:31.006Z,50.885616
2023-11-01T00:43:31.003Z,50.885674
2023-11-01T00:44:30.992Z,50.885540
2023-11-01T00:45:30.985Z,50.885490
2023-11-01T00:46:31.024Z,50.885578
2023-11-01T00:47:31.045Z,50.885601
2023-11-01T00:48:30.961Z,50.885632
2023-11-01T00:49:30.991Z,50.885628
2023-11-01T00:50:30.998Z,50.885643
2023-11-01T00:51:30.953Z,50.885696
2023-11-01T00:52:30.979Z,50.885635
2023-11-01T00:53:31.013Z,50.885571
2023-11-01T00:54:30.973Z,50.885620
2023-11-01T00:55:30.987Z,50.885551
2023-11-01T00:56:30.992Z,50.885559
2023-11-01T00:57:30.932Z,50.885513
2023-11-01T00:58:30.942Z,50.885559
2023-11-01T00:59:31.024Z,50.885551
2023-11-01T01:00:30.934Z,50.885647
2023-11-01T01:01:30.961Z,50.885689
2023-11-01T01:02:30.992Z,50.885704
2023-11-01T01:03:31.014Z,50.885612
2023-11-01T01:04:30.940Z,50.885616
2023-11-01T01:05:30.973Z,50.885616
2023-11-01T01:06:30.954Z,50.885628
2023-11-01T01:07:30.879Z,50.885666
2023-11-01T01:08:31.040Z,50.885662
2023-11-01T01:09:30.894Z,50.885735
2023-11-01T01:10:30.901Z,50.885647
2023-11-01T01:11:30.899Z,50.885612
2023-11-01T01:12:30.874Z,50.885624
2023-11-01T01:13:30.854Z,50.885605
2023-11-01T01:14:30.879Z,50.885632
2023-11-01T01:15:30.846Z,50.885651
2023-11-01T01:16:31.866Z,50.885651
2023-11-01T01:17:30.928Z,50.885643
2023-11-01T01:18:30.841Z,50.885689
2023-11-01T01:19:30.826Z,50.885658
2023-11-01T01:20:30.888Z,50.885651
2023-11-01T01:21:30.844Z,50.885662
2023-11-01T01:22:30.846Z,50.885696
2023-11-01T01:23:30.855Z,50.885677
2023-11-01T01:24:30.855Z,50.885662
2023-11-01T01:25:30.831Z,50.885654
2023-11-01T01:26:30.924Z,50.885620
2023-11-01T01:27:30.800Z,50.885651
2023-11-01T01:28:31.785Z,50.885666
2023-11-01T01:29:30.845Z,50.885654
2023-11-01T01:30:30.764Z,50.885666
2023-11-01T01:31:30.807Z,50.885654
2023-11-01T01:32:30.809Z,50.885674
2023-11-01T01:33:30.760Z,50.885681
2023-11-01T01:34:30.740Z,50.885666
2023-11-01T01:35:30.753Z,50.885654
2023-11-01T01:36:30.776Z,50.885654
2023-11-01T01:37:30.750Z,50.885651
2023-11-01T01:38:30.782Z,50.885647
2023-11-01T01:39:30.746Z,50.885643
2023-11-01T01:40:30.716Z,50.885635
2023-11-01T01:41:30.736Z,50.885654
2023-11-01T01:42:30.719Z,50.885654
2023-11-01T01:43:30.760Z,50.885658
2023-11-01T01:44:30.687Z,50.885704
2023-11-01T01:45:30.705Z,50.885544
2023-11-01T01:46:30.708Z,50.885643
2023-11-01T01:47:30.760Z,50.885597
2023-11-01T01:48:30.688Z,50.885609
2023-11-01T01:49:36.943Z,50.885456
2023-11-01T01:50:32.706Z,50.885612
2023-11-01T01:51:30.689Z,50.885677
2023-11-01T01:52:30.691Z,50.885670
2023-11-01T01:53:30.724Z,50.885620
2023-11-01T01:54:30.677Z,50.885658
2023-11-01T01:55:30.667Z,50.885597
2023-11-01T01:56:30.662Z,50.885654
2023-11-01T01:57:30.632Z,50.885548
2023-11-01T01:58:30.651Z,50.885452
2023-11-01T01:59:30.641Z,50.885712
2023-11-01T02:00:30.642Z,50.885723
2023-11-01T02:01:38.831Z,50.885769
2023-11-01T02:02:31.738Z,50.886036
2023-11-01T02:03:30.696Z,50.885754
2023-11-01T02:04:30.646Z,50.885658
2023-11-01T02:05:30.637Z,50.885761
2023-11-01T02:06:30.622Z,50.885643
2023-11-01T02:07:30.612Z,50.885670
2023-11-01T02:08:30.608Z,50.885784
2023-11-01T02:09:30.573Z,50.885635
2023-11-01T02:10:30.571Z,50.885723
2023-11-01T02:11:30.604Z,50.885715
2023-11-01T02:12:30.560Z,50.885727
2023-11-01T02:13:30.548Z,50.885712
2023-11-01T02:14:30.588Z,50.885788
2023-11-01T02:15:30.544Z,50.885700
2023-11-01T02:16:30.549Z,50.885719
2023-11-01T02:17:30.738Z,50.885693
2023-11-01T02:18:30.565Z,50.885658
2023-11-01T02:19:30.548Z,50.885731
2023-11-01T02:20:30.525Z,50.885639
2023-11-01T02:21:30.518Z,50.885700
2023-11-01T02:22:30.566Z,50.885754
2023-11-01T02:23:30.547Z,50.885738
2023-11-01T02:24:30.501Z,50.885746
2023-11-01T02:25:30.504Z,50.885757
2023-11-01T02:26:30.522Z,50.885742
2023-11-01T02:27:30.472Z,50.885693
2023-11-01T02:28:30.491Z,50.885723
2023-11-01T02:29:30.548Z,50.885674
2023-11-01T02:30:30.479Z,50.885635
2023-11-01T02:31:30.495Z,50.885612
2023-11-01T02:32:30.538Z,50.885597
2023-11-01T02:33:30.493Z,50.885567
2023-11-01T02:34:30.445Z,50.885624
2023-11-01T02:35:30.505Z,50.885616
2023-11-01T02:36:30.449Z,50.885609
2023-11-01T02:37:30.446Z,50.885563
2023-11-01T02:38:31.511Z,50.885597
2023-11-01T02:39:30.408Z,50.885590
2023-11-01T02:40:30.428Z,50.885651
2023-11-01T02:41:30.470Z,50.885612
2023-11-01T02:42:30.387Z,50.885551
2023-11-01T02:43:30.438Z,50.885632
2023-11-01T02:44:30.417Z,50.885643
2023-11-01T02:45:30.390Z,50.885658
2023-11-01T02:46:31.400Z,50.885662
2023-11-01T02:47:30.468Z,50.885674
2023-11-01T02:48:30.378Z,50.885700
2023-11-01T02:49:30.341Z,50.885704
2023-11-01T02:50:30.449Z,50.885761
2023-11-01T02:51:30.355Z,50.885761
2023-11-01T02:52:30.334Z,50.885715
2023-11-01T02:53:30.449Z,50.885719
2023-11-01T02:54:30.344Z,50.885670
2023-11-01T02:55:31.345Z,50.885639
2023-11-01T02:56:30.399Z,50.885601
2023-11-01T02:57:30.323Z,50.885597
2023-11-01T02:58:30.388Z,50.885593
2023-11-01T02:59:30.366Z,50.885685
2023-11-01T03:00:30.324Z,50.885643
2023-11-01T03:01:30.368Z,50.885662
2023-11-01T03:02:30.401Z,50.885681
2023-11-01T03:03:30.447Z,50.885635
2023-11-01T03:04:30.449Z,50.885651
2023-11-01T03:05:30.321Z,50.885700
2023-11-01T03:06:30.311Z,50.885681
2023-11-01T03:07:30.322Z,50.885735
2023-11-01T03:08:30.426Z,50.885860
2023-11-01T03:09:30.299Z,50.885830
2023-11-01T03:10:30.398Z,50.885868
2023-11-01T03:11:30.323Z,50.885830
2023-11-01T03:12:30.344Z,50.885765
2023-11-01T03:13:30.350Z,50.885719
2023-11-01T03:14:30.327Z,50.885632
2023-11-01T03:15:30.346Z,50.885670
2023-11-01T03:16:30.243Z,50.885632
2023-11-01T03:17:30.282Z,50.885628
2023-11-01T03:18:30.238Z,50.885555
2023-11-01T03:19:30.220Z,50.885612
2023-11-01T03:20:30.317Z,50.885555
2023-11-01T03:21:30.192Z,50.885551
2023-11-01T03:22:30.224Z,50.885365
2023-11-01T03:23:30.228Z,50.885616
2023-11-01T03:24:30.233Z,50.885586
2023-11-01T03:25:30.184Z,50.885590
2023-11-01T03:26:30.318Z,50.885475
2023-11-01T03:27:30.226Z,50.885609
2023-11-01T03:28:30.187Z,50.885559
2023-11-01T03:29:30.227Z,50.885571
2023-11-01T03:30:30.232Z,50.885597
2023-11-01T03:31:30.220Z,50.885738
2023-11-01T03:32:30.213Z,50.885551
2023-11-01T03:33:30.167Z,50.885365
2023-11-01T03:34:30.137Z,50.885460
2023-11-01T03:35:30.183Z,50.885574
2023-11-01T03:36:30.148Z,50.885605
2023-11-01T03:37:30.183Z,50.885563
2023-11-01T03:38:30.141Z,50.885693
2023-11-01T03:39:30.103Z,50.885719
2023-11-01T03:40:30.135Z,50.885689
2023-11-01T03:41:30.116Z,50.885628
2023-11-01T03:42:30.149Z,50.885616
2023-11-01T03:43:30.101Z,50.885578
2023-11-01T03:44:30.132Z,50.885685
2023-11-01T03:45:30.086Z,50.885696
2023-11-01T03:46:30.099Z,50.885670
2023-11-01T03:47:31.218Z,50.885689
2023-11-01T03:48:30.155Z,50.885612
2023-11-01T03:49:30.086Z,50.885662
2023-11-01T03:50:30.102Z,50.885601
2023-11-01T03:51:30.058Z,50.885609
2023-11-01T03:52:30.067Z,50.885662
2023-11-01T03:53:30.108Z,50.885632
2023-11-01T03:54:30.040Z,50.885670
2023-11-01T03:55:30.029Z,50.885685
2023-11-01T03:56:30.105Z,50.885769
2023-11-01T03:57:30.023Z,50.885708
2023-11-01T03:58:30.051Z,50.885628
2023-11-01T03:59:30.122Z,50.885696
2023-11-01T04:00:29.980Z,50.885677
2023-11-01T04:01:30.093Z,50.885590
2023-11-01T04:02:30.087Z,50.885612
2023-11-01T04:03:30.098Z,50.885559
2023-11-01T04:04:30.044Z,50.885632
2023-11-01T04:05:30.116Z,50.885612
2023-11-01T04:06:30.044Z,50.885643
2023-11-01T04:07:29.995Z,50.885567
2023-11-01T04:08:29.975Z,50.885620
2023-11-01T04:09:30.034Z,50.885628
2023-11-01T04:10:29.975Z,50.885624
2023-11-01T04:11:29.957Z,50.885651
2023-11-01T04:12:29.972Z,50.885658
2023-11-01T04:13:29.965Z,50.885643
2023-11-01T04:14:30.038Z,50.885612
2023-11-01T04:15:29.975Z,50.885578
2023-11-01T04:16:29.924Z,50.885574
2023-11-01T04:17:29.973Z,50.885529
2023-11-01T04:18:29.955Z,50.885456
2023-11-01T04:19:29.976Z,50.885361
2023-11-01T04:20:29.969Z,50.885216
2023-11-01T04:21:29.925Z,50.885670
2023-11-01T04:22:29.909Z,50.885540
2023-11-01T04:23:29.963Z,50.885574
2023-11-01T04:24:29.931Z,50.885609
2023-11-01T04:25:29.909Z,50.885605
2023-11-01T04:26:29.906Z,50.885540
2023-11-01T04:27:29.880Z,50.885632
2023-11-01T04:28:29.891Z,50.885662
2023-11-01T04:29:29.890Z,50.885616
2023-11-01T04:30:29.848Z,50.885586
2023-11-01T04:31:29.882Z,50.885647
2023-11-01T04:32:29.981Z,50.885593
2023-11-01T04:33:29.863Z,50.885529
2023-11-01T04:34:29.877Z,50.885414
2023-11-01T04:35:29.923Z,50.885643
2023-11-01T04:36:29.848Z,50.885586
2023-11-01T04:37:29.797Z,50.885593
2023-11-01T04:38:29.883Z,50.885662
2023-11-01T04:39:29.867Z,50.885643
2023-11-01T04:40:29.869Z,50.885704
2023-11-01T04:41:29.915Z,50.885593
2023-11-01T04:42:29.808Z,50.885559
2023-11-01T04:43:29.841Z,50.885643
2023-11-01T04:44:29.814Z,50.885830
2023-11-01T04:45:29.757Z,50.885681
2023-11-01T04:46:29.824Z,50.885571
2023-11-01T04:47:29.889Z,50.885574
2023-11-01T04:48:29.782Z,50.885601
2023-11-01T04:49:29.780Z,50.885544
2023-11-01T04:50:29.843Z,50.885571
2023-11-01T04:51:29.765Z,50.885605
2023-11-01T04:52:29.758Z,50.885601
2023-11-01T04:53:29.769Z,50.885597
2023-11-01T04:54:29.801Z,50.885628
2023-11-01T04:55:29.724Z,50.885616
2023-11-01T04:56:29.727Z,50.885628
2023-11-01T04:57:29.747Z,50.885635
2023-11-01T04:58:29.705Z,50.885616
2023-11-01T04:59:29.753Z,50.885620
2023-11-01T05:00:29.712Z,50.885620
2023-11-01T05:01:29.690Z,50.885624
2023-11-01T05:02:29.869Z,50.885563
2023-11-01T05:03:29.729Z,50.885643
2023-11-01T05:04:29.665Z,50.885601
2023-11-01T05:05:29.723Z,50.885620
2023-11-01T05:06:29.676Z,50.885658
2023-11-01T05:07:29.683Z,50.885597
2023-11-01T05:08:29.732Z,50.885502
2023-11-01T05:09:29.647Z,50.885582
2023-11-01T05:10:29.710Z,50.885681
2023-11-01T05:11:29.660Z,50.885696
2023-11-01T05:12:29.667Z,50.885654
2023-11-01T05:13:29.650Z,50.885704
2023-11-01T05:14:29.688Z,50.885586
2023-11-01T05:15:29.634Z,50.885708
2023-11-01T05:16:29.721Z,50.885571
2023-11-01T05:17:29.655Z,50.885571
2023-11-01T05:18:29.788Z,50.885487
2023-11-01T05:19:29.641Z,50.885590
2023-11-01T05:20:29.628Z,50.885784
2023-11-01T05:21:29.637Z,50.885910
2023-11-01T05:22:29.584Z,50.885860
2023-11-01T05:23:29.605Z,50.885685
2023-11-01T05:24:29.653Z,50.885616
2023-11-01T05:25:30.805Z,50.885567
2023-11-01T05:26:30.685Z,50.885571
2023-11-01T05:27:29.612Z,50.885628
2023-11-01T05:28:29.567Z,50.885735
2023-11-01T05:29:29.573Z,50.885685
2023-11-01T05:30:29.568Z,50.885654
2023-11-01T05:31:29.606Z,50.885582
2023-11-01T05:32:29.601Z,50.885593
2023-11-01T05:33:29.623Z,50.885624
2023-11-01T05:34:29.574Z,50.885605
2023-11-01T05:35:29.550Z,50.885872
2023-11-01T05:36:29.531Z,50.885704
2023-11-01T05:37:29.496Z,50.885647
2023-11-01T05:38:29.540Z,50.885635
2023-11-01T05:39:29.506Z,50.885590
2023-11-01T05:40:29.506Z,50.885609
2023-11-01T05:41:29.556Z,50.885632
2023-11-01T05:42:29.473Z,50.885632
2023-11-01T05:43:29.526Z,50.885517
2023-11-01T05:44:29.484Z,50.885559
2023-11-01T05:45:29.509Z,50.885551
2023-11-01T05:46:29.533Z,50.885605
2023-11-01T05:47:29.498Z,50.885609
2023-11-01T05:48:29.481Z,50.885616
2023-11-01T05:49:29.456Z,50.885571
2023-11-01T05:50:29.494Z,50.885532
2023-11-01T05:51:29.439Z,50.885620
2023-11-01T05:52:29.417Z,50.885658
2023-11-01T05:53:29.481Z,50.885681
2023-11-01T05:54:29.429Z,50.885693
2023-11-01T05:55:38.079Z,50.885696
2023-11-01T05:56:29.458Z,50.885494
2023-11-01T05:57:29.430Z,50.885429
2023-11-01T05:58:29.465Z,50.885532
2023-11-01T05:59:29.410Z,50.885521
2023-11-01T06:00:29.452Z,50.885612
2023-11-01T06:01:29.470Z,50.885658
2023-11-01T06:02:29.488Z,50.885700
2023-11-01T06:03:29.473Z,50.885666
2023-11-01T06:04:29.361Z,50.885548
2023-11-01T06:05:29.497Z,50.885544
2023-11-01T06:06:29.347Z,50.885632
2023-11-01T06:07:29.367Z,50.885647
2023-11-01T06:08:29.362Z,50.885757
2023-11-01T06:09:30.705Z,50.885700
2023-11-01T06:10:29.348Z,50.885719
2023-11-01T06:11:29.357Z,50.885689
2023-11-01T06:12:29.347Z,50.885689
2023-11-01T06:13:29.336Z,50.885654
2023-11-01T06:14:29.360Z,50.885624
2023-11-01T06:15:29.370Z,50.885616
2023-11-01T06:16:29.360Z,50.885586
2023-11-01T06:17:29.373Z,50.885639
2023-11-01T06:18:29.347Z,50.885635
2023-11-01T06:19:29.265Z,50.885624
2023-11-01T06:20:29.351Z,50.885586
2023-11-01T06:21:29.380Z,50.885639
2023-11-01T06:22:29.281Z,50.885612
2023-11-01T06:23:29.313Z,50.885532
2023-11-01T06:24:29.266Z,50.885612
2023-11-01T06:25:30.244Z,50.885548
2023-11-01T06:26:29.341Z,50.885628
2023-11-01T06:27:29.256Z,50.885670
2023-11-01T06:28:29.242Z,50.885677
2023-11-01T06:29:29.298Z,50.885689
2023-11-01T06:30:29.258Z,50.885612
2023-11-01T06:31:29.259Z,50.885700
2023-11-01T06:32:29.312Z,50.885696
2023-11-01T06:33:29.321Z,50.885529
2023-11-01T06:34:29.192Z,50.885601
2023-11-01T06:35:29.216Z,50.885563
2023-11-01T06:36:29.275Z,50.885700
2023-11-01T06:37:29.219Z,50.885807
2023-11-01T06:38:29.210Z,50.885715
2023-11-01T06:39:29.182Z,50.885639
2023-11-01T06:40:29.189Z,50.885693
2023-11-01T06:41:29.223Z,50.885662
2023-11-01T06:42:29.154Z,50.885666
2023-11-01T06:43:29.178Z,50.885601
2023-11-01T06:44:29.145Z,50.885590
2023-11-01T06:45:29.154Z,50.885582
2023-11-01T06:46:29.168Z,50.885609
2023-11-01T06:47:29.192Z,50.885593
2023-11-01T06:48:29.165Z,50.885605
2023-11-01T06:49:31.721Z,50.885612
2023-11-01T06:50:29.168Z,50.885593
2023-11-01T06:51:29.151Z,50.885601
2023-11-01T06:52:29.090Z,50.885601
2023-11-01T06:53:29.136Z,50.885567
2023-11-01T06:54:29.106Z,50.885616
2023-11-01T06:55:29.105Z,50.885597
2023-11-01T06:56:29.112Z,50.885624
2023-11-01T06:57:29.154Z,50.885624
2023-11-01T06:58:29.081Z,50.885635
2023-11-01T06:59:29.133Z,50.885651
2023-11-01T07:00:29.146Z,50.885635
2023-11-01T07:01:29.183Z,50.885616
2023-11-01T07:02:29.136Z,50.885616
2023-11-01T07:03:29.196Z,50.885632
2023-11-01T07:04:29.125Z,50.885609
2023-11-01T07:05:29.113Z,50.885654
2023-11-01T07:06:29.081Z,50.885605
2023-11-01T07:07:29.049Z,50.885654
2023-11-01T07:08:29.081Z,50.885658
2023-11-01T07:09:29.025Z,50.885666
2023-11-01T07:10:29.072Z,50.885639
2023-11-01T07:11:29.154Z,50.885654
2023-11-01T07:12:29.047Z,50.885677
2023-11-01T07:13:29.156Z,50.885647
2023-11-01T07:14:30.020Z,50.885620
2023-11-01T07:15:29.089Z,50.885654
2023-11-01T07:16:29.032Z,50.885635
2023-11-01T07:17:29.176Z,50.885635
2023-11-01T07:18:29.044Z,50.885662
2023-11-01T07:19:28.968Z,50.885639
2023-11-01T07:20:29.016Z,50.885597
2023-11-01T07:21:28.981Z,50.885700
2023-11-01T07:22:28.978Z,50.885742
2023-11-01T07:23:28.993Z,50.885719
2023-11-01T07:24:28.944Z,50.885765
2023-11-01T07:25:28.933Z,50.885677
2023-11-01T07:26:29.040Z,50.885651
2023-11-01T07:27:28.954Z,50.885654
2023-11-01T07:28:28.944Z,50.885609
2023-11-01T07:29:28.921Z,50.885643
2023-11-01T07:30:28.964Z,50.885628
2023-11-01T07:31:28.961Z,50.885639
2023-11-01T07:32:29.029Z,50.885689
2023-11-01T07:33:28.991Z,50.885670
2023-11-01T07:34:28.931Z,50.885704
2023-11-01T07:35:28.921Z,50.885536
2023-11-01T07:36:28.897Z,50.885109
2023-11-01T07:37:28.915Z,50.885677
2023-11-01T07:38:28.901Z,50.884998
2023-11-01T07:39:28.880Z,50.884209
2023-11-01T07:40:28.872Z,50.884361
2023-11-01T07:41:28.887Z,50.885536
2023-11-01T07:42:28.874Z,50.885948
2023-11-01T07:43:28.852Z,50.885990
2023-11-01T07:44:28.856Z,50.885712
2023-11-01T07:45:28.859Z,50.885662
2023-11-01T07:46:28.859Z,50.885677
2023-11-01T07:47:28.891Z,50.885658
2023-11-01T07:48:28.908Z,50.885780
2023-11-01T07:49:28.823Z,50.885590
2023-11-01T07:50:28.876Z,50.885609
2023-11-01T07:51:28.793Z,50.885616
2023-11-01T07:52:28.850Z,50.885597
2023-11-01T07:53:28.833Z,50.885616
2023-11-01T07:54:28.809Z,50.885475
2023-11-01T07:55:28.789Z,50.885540
2023-11-01T07:56:28.801Z,50.885586
2023-11-01T07:57:28.788Z,50.885452
2023-11-01T07:58:28.762Z,50.885700
2023-11-01T07:59:28.814Z,50.885788
2023-11-01T08:00:28.747Z,50.885834
2023-11-01T08:01:28.810Z,50.885654
2023-11-01T08:02:28.871Z,50.885609
2023-11-01T08:03:28.969Z,50.885654
2023-11-01T08:04:28.864Z,50.885700
2023-11-01T08:05:28.747Z,50.885662
2023-11-01T08:06:28.736Z,50.885723
2023-11-01T08:07:28.728Z,50.885803
2023-11-01T08:08:28.732Z,50.885933
2023-11-01T08:09:28.719Z,50.885784
2023-11-01T08:10:28.734Z,50.885925
2023-11-01T08:11:28.707Z,50.885914
2023-11-01T08:12:28.717Z,50.885818
2023-11-01T08:13:28.685Z,50.885674
2023-11-01T08:14:28.735Z,50.885582
2023-11-01T08:15:28.696Z,50.885647
2023-11-01T08:16:28.884Z,50.885662
2023-11-01T08:17:28.754Z,50.885551
2023-11-01T08:18:28.679Z,50.885681
2023-11-01T08:19:28.683Z,50.885529
2023-11-01T08:20:28.664Z,50.885593
2023-11-01T08:21:28.666Z,50.885746
2023-11-01T08:22:28.667Z,50.885601
2023-11-01T08:23:28.689Z,50.885616
2023-11-01T08:24:28.666Z,50.885612
2023-11-01T08:25:28.665Z,50.885593
2023-11-01T08:26:28.666Z,50.885593
2023-11-01T08:27:28.762Z,50.885620
2023-11-01T08:28:28.606Z,50.885620
2023-11-01T08:29:28.635Z,50.885849
2023-11-01T08:30:28.631Z,50.885635
2023-11-01T08:31:28.645Z,50.885742
2023-11-01T08:32:28.674Z,50.885773
2023-11-01T08:33:28.703Z,50.885750
2023-11-01T08:34:28.701Z,50.885822
2023-11-01T08:35:28.634Z,50.885769
2023-11-01T08:36:28.609Z,50.885704
2023-11-01T08:37:28.603Z,50.885723
2023-11-01T08:38:28.675Z,50.885704
2023-11-01T08:39:28.593Z,50.885681
2023-11-01T08:40:28.593Z,50.885746
2023-11-01T08:41:28.582Z,50.885700
2023-11-01T08:42:28.552Z,50.885731
2023-11-01T08:43:28.581Z,50.885731
2023-11-01T08:44:28.572Z,50.885849
2023-11-01T08:45:28.560Z,50.885780
2023-11-01T08:46:28.555Z,50.885750
2023-11-01T08:47:28.639Z,50.885715
2023-11-01T08:48:28.650Z,50.885803
2023-11-01T08:49:28.551Z,50.885799
2023-11-01T08:50:28.534Z,50.885803
2023-11-01T08:51:28.533Z,50.885822
2023-11-01T08:52:28.508Z,50.885811
2023-11-01T08:53:30.747Z,50.885914
2023-11-01T08:54:28.488Z,50.885975
2023-11-01T08:55:28.554Z,50.886066
2023-11-01T08:56:28.539Z,50.886116
2023-11-01T08:57:28.508Z,50.886093
2023-11-01T08:58:28.495Z,50.886078
2023-11-01T08:59:28.549Z,50.886021
2023-11-01T09:00:39.206Z,50.885941
2023-11-01T09:01:30.472Z,50.885883
2023-11-01T09:02:28.596Z,50.885880
2023-11-01T09:03:28.563Z,50.885841
2023-11-01T09:04:28.546Z,50.885876
2023-11-01T09:05:28.711Z,50.885788
2023-11-01T09:06:28.465Z,50.885666
2023-11-01T09:07:28.440Z,50.885704
2023-11-01T09:08:28.470Z,50.885780
2023-11-01T09:09:28.423Z,50.885765
2023-11-01T09:10:28.513Z,50.885784
2023-11-01T09:11:28.441Z,50.885822
2023-11-01T09:12:28.451Z,50.885761
2023-11-01T09:13:28.417Z,50.885708
2023-11-01T09:14:28.465Z,50.885769
2023-11-01T09:15:28.458Z,50.885719
2023-11-01T09:16:28.475Z,50.885780
2023-11-01T09:17:28.500Z,50.885834
2023-11-01T09:18:28.546Z,50.885696
2023-11-01T09:19:28.407Z,50.885670
2023-11-01T09:20:28.398Z,50.885704
2023-11-01T09:21:28.365Z,50.885700
2023-11-01T09:22:28.355Z,50.885693
2023-11-01T09:23:28.427Z,50.885685
2023-11-01T09:24:29.394Z,50.885693
2023-11-01T09:25:28.387Z,50.885685
2023-11-01T09:26:28.397Z,50.885647
2023-11-01T09:27:28.374Z,50.885674
2023-11-01T09:28:28.372Z,50.885674
2023-11-01T09:29:28.378Z,50.885632
2023-11-01T09:30:28.324Z,50.885696
2023-11-01T09:31:28.365Z,50.885681
2023-11-01T09:32:28.361Z,50.885651
2023-11-01T09:33:28.429Z,50.885609
2023-11-01T09:34:28.352Z,50.885662
2023-11-01T09:35:28.455Z,50.885670
2023-11-01T09:36:28.312Z,50.885612
2023-11-01T09:37:28.290Z,50.885601
2023-11-01T09:38:28.323Z,50.885620
2023-11-01T09:39:28.317Z,50.885616
2023-11-01T09:40:28.324Z,50.885632
2023-11-01T09:41:28.371Z,50.885654
2023-11-01T09:42:28.280Z,50.885593
2023-11-01T09:43:28.281Z,50.885632
2023-11-01T09:44:28.383Z,50.885628
2023-11-01T09:45:28.280Z,50.885628
2023-11-01T09:46:28.322Z,50.885559
2023-11-01T09:47:28.668Z,50.885563
2023-11-01T09:48:28.319Z,50.885628
2023-11-01T09:49:28.268Z,50.885761
2023-11-01T09:50:28.308Z,50.885620
2023-11-01T09:51:28.235Z,50.885696
2023-11-01T09:52:28.252Z,50.885662
2023-11-01T09:53:28.292Z,50.885651
2023-11-01T09:54:28.245Z,50.885601
2023-11-01T09:55:28.222Z,50.885651
2023-11-01T09:56:28.254Z,50.885658
2023-11-01T09:57:28.227Z,50.885624
2023-11-01T09:58:28.240Z,50.885609
2023-11-01T09:59:28.229Z,50.885628
2023-11-01T10:00:28.200Z,50.885578
2023-11-01T10:01:28.194Z,50.885620
2023-11-01T10:02:28.260Z,50.885601
2023-11-01T10:03:28.285Z,50.885498
2023-11-01T10:04:28.206Z,50.885544
2023-11-01T10:05:28.223Z,50.885597
2023-11-01T10:06:28.192Z,50.885632
2023-11-01T10:07:28.174Z,50.885647
2023-11-01T10:08:28.179Z,50.885677
2023-11-01T10:09:28.165Z,50.885597
2023-11-01T10:10:28.183Z,50.885590
2023-11-01T10:11:30.891Z,50.885658
2023-11-01T10:12:28.144Z,50.885693
2023-11-01T10:13:28.140Z,50.885689
2023-11-01T10:14:28.213Z,50.885696
2023-11-01T10:15:28.161Z,50.885628
2023-11-01T10:16:28.114Z,50.885632
2023-11-01T10:17:28.157Z,50.885582
2023-11-01T10:18:28.213Z,50.885532
2023-11-01T10:19:28.110Z,50.885525
2023-11-01T10:20:28.115Z,50.885502
2023-11-01T10:21:28.219Z,50.885468
2023-11-01T10:22:28.118Z,50.885498
2023-11-01T10:23:28.139Z,50.885521
2023-11-01T10:24:28.131Z,50.885498
2023-11-01T10:25:28.137Z,50.885513
2023-11-01T10:26:28.108Z,50.885475
2023-11-01T10:27:28.097Z,50.885506
2023-11-01T10:28:28.089Z,50.885555
2023-11-01T10:29:28.142Z,50.885586
2023-11-01T10:30:28.104Z,50.885609
2023-11-01T10:31:28.066Z,50.885593
2023-11-01T10:32:28.172Z,50.885612
2023-11-01T10:33:28.161Z,50.885582
2023-11-01T10:34:28.063Z,50.885540
2023-11-01T10:35:28.436Z,50.885567
2023-11-01T10:36:28.049Z,50.885670
2023-11-01T10:37:28.039Z,50.885662
2023-11-01T10:38:28.103Z,50.885597
2023-11-01T10:39:28.028Z,50.885559
2023-11-01T10:40:28.037Z,50.885551
2023-11-01T10:41:28.041Z,50.885544
2023-11-01T10:42:28.009Z,50.885521
2023-11-01T10:43:27.997Z,50.885525
2023-11-01T10:44:28.008Z,50.885464
2023-11-01T10:45:28.011Z,50.885502
2023-11-01T10:46:27.993Z,50.885532
2023-11-01T10:47:27.995Z,50.885559
2023-11-01T10:48:28.006Z,50.885574
2023-11-01T10:49:27.963Z,50.885563
2023-11-01T10:50:28.007Z,50.885559
2023-11-01T10:51:27.955Z,50.885567
2023-11-01T10:52:27.977Z,50.885525
2023-11-01T10:53:28.046Z,50.885490
2023-11-01T10:54:28.094Z,50.885509
2023-11-01T10:55:28.065Z,50.885532
2023-11-01T10:56:27.979Z,50.885616
2023-11-01T10:57:27.929Z,50.885639
2023-11-01T10:58:27.918Z,50.885735
2023-11-01T10:59:27.932Z,50.885624
2023-11-01T11:00:28.023Z,50.885643
2023-11-01T11:01:27.898Z,50.885647
2023-11-01T11:02:27.949Z,50.885509
2023-11-01T11:03:28.119Z,50.885586
2023-11-01T11:04:28.054Z,50.885635
2023-11-01T11:05:27.907Z,50.885666
2023-11-01T11:06:27.868Z,50.885708
2023-11-01T11:07:27.871Z,50.885674
2023-11-01T11:08:27.892Z,50.885647
2023-11-01T11:09:27.863Z,50.885635
2023-11-01T11:10:27.892Z,50.885719
2023-11-01T11:11:27.875Z,50.885735
2023-11-01T11:12:27.823Z,50.885681
2023-11-01T11:13:27.837Z,50.885826
2023-11-01T11:14:27.834Z,50.885914
2023-11-01T11:15:27.830Z,50.885860
2023-11-01T11:16:27.865Z,50.885902
2023-11-01T11:17:27.841Z,50.885944
2023-11-01T11:18:27.921Z,50.885952
2023-11-01T11:19:27.822Z,50.885857
2023-11-01T11:20:27.869Z,50.885807
2023-11-01T11:21:27.831Z,50.885857
2023-11-01T11:22:27.812Z,50.885933
2023-11-01T11:23:27.851Z,50.886070
2023-11-01T11:24:27.790Z,50.886166